sensor_id;sensor_type;location;lat;lon;timestamp;temperature;humidity
26035;DHT22;13809;48.632;11.576;2023-02-01T00:00:56;7.80;39.10
26035;DHT22;13809;48.632;11.576;2023-02-01T00:06:01;7.80;39.10
26035;DHT22;13809;48.632;11.576;2023-02-01T00:11:06;7.70;39.40
26035;DHT22;13809;48.632;11.576;2023-02-01T00:16:12;7.70;39.50
26035;DHT22;13809;48.632;11.576;2023-02-01T00:21:19;7.60;39.50
26035;DHT22;13809;48.632;11.576;2023-02-01T00:26:27;7.60;39.60
26035;DHT22;13809;48.632;11.576;2023-02-01T00:31:30;7.60;39.70
26035;DHT22;13809;48.632;11.576;2023-02-01T00:36:35;7.60;39.70
26035;DHT22;13809;48.632;11.576;2023-02-01T00:41:38;7.50;39.80
26035;DHT22;13809;48.632;11.576;2023-02-01T00:46:42;7.60;39.70
26035;DHT22;13809;48.632;11.576;2023-02-01T00:51:47;7.60;39.70
26035;DHT22;13809;48.632;11.576;2023-02-01T00:56:50;7.60;39.70
26035;DHT22;13809;48.632;11.576;2023-02-01T01:01:53;7.60;39.70
26035;DHT22;13809;48.632;11.576;2023-02-01T01:06:58;7.70;39.80
26035;DHT22;13809;48.632;11.576;2023-02-01T01:12:01;7.70;40.00
26035;DHT22;13809;48.632;11.576;2023-02-01T01:17:04;7.70;39.80
26035;DHT22;13809;48.632;11.576;2023-02-01T01:22:09;7.70;39.90
26035;DHT22;13809;48.632;11.576;2023-02-01T01:27:12;7.70;40.00
26035;DHT22;13809;48.632;11.576;2023-02-01T01:32:15;7.70;39.90
26035;DHT22;13809;48.632;11.576;2023-02-01T01:37:20;7.70;40.00
26035;DHT22;13809;48.632;11.576;2023-02-01T01:42:23;7.70;40.20
26035;DHT22;13809;48.632;11.576;2023-02-01T01:47:28;7.60;40.20
26035;DHT22;13809;48.632;11.576;2023-02-01T01:52:35;7.60;40.20
26035;DHT22;13809;48.632;11.576;2023-02-01T01:57:42;7.60;40.40
26035;DHT22;13809;48.632;11.576;2023-02-01T02:02:48;7.60;40.40
26035;DHT22;13809;48.632;11.576;2023-02-01T02:07:59;7.60;40.30
26035;DHT22;13809;48.632;11.576;2023-02-01T02:13:03;7.60;40.40
26035;DHT22;13809;48.632;11.576;2023-02-01T02:18:10;7.60;40.30
26035;DHT22;13809;48.632;11.576;2023-02-01T02:34:50;7.50;40.60
26035;DHT22;13809;48.632;11.576;2023-02-01T02:40:04;7.50;40.60
26035;DHT22;13809;48.632;11.576;2023-02-01T02:45:14;7.50;40.50
26035;DHT22;13809;48.632;11.576;2023-02-01T02:50:42;7.50;40.30
26035;DHT22;13809;48.632;11.576;2023-02-01T02:56:06;7.50;40.40
26035;DHT22;13809;48.632;11.576;2023-02-01T03:01:28;7.50;40.40
26035;DHT22;13809;48.632;11.576;2023-02-01T03:06:52;7.50;40.20
26035;DHT22;13809;48.632;11.576;2023-02-01T03:12:11;7.50;40.40
26035;DHT22;13809;48.632;11.576;2023-02-01T03:17:37;7.50;40.50
26035;DHT22;13809;48.632;11.576;2023-02-01T05:19:12;7.40;40.90
26035;DHT22;13809;48.632;11.576;2023-02-01T05:24:15;7.40;40.90
26035;DHT22;13809;48.632;11.576;2023-02-01T05:29:21;7.40;40.80
26035;DHT22;13809;48.632;11.576;2023-02-01T05:34:26;7.40;40.90
26035;DHT22;13809;48.632;11.576;2023-02-01T05:39:29;7.40;40.90
26035;DHT22;13809;48.632;11.576;2023-02-01T05:44:32;7.50;40.90
26035;DHT22;13809;48.632;11.576;2023-02-01T05:49:37;7.50;40.90
26035;DHT22;13809;48.632;11.576;2023-02-01T05:54:40;7.50;40.90
26035;DHT22;13809;48.632;11.576;2023-02-01T05:59:43;7.60;41.00
26035;DHT22;13809;48.632;11.576;2023-02-01T06:04:48;7.60;41.00
26035;DHT22;13809;48.632;11.576;2023-02-01T06:09:51;7.60;41.10
26035;DHT22;13809;48.632;11.576;2023-02-01T06:14:54;7.60;41.80
26035;DHT22;13809;48.632;11.576;2023-02-01T06:19:59;7.60;41.10
26035;DHT22;13809;48.632;11.576;2023-02-01T06:25:02;7.60;41.00
26035;DHT22;13809;48.632;11.576;2023-02-01T06:30:07;7.70;41.00
26035;DHT22;13809;48.632;11.576;2023-02-01T06:35:11;7.70;41.00
26035;DHT22;13809;48.632;11.576;2023-02-01T06:40:18;7.70;41.00
26035;DHT22;13809;48.632;11.576;2023-02-01T06:45:21;7.70;40.80
26035;DHT22;13809;48.632;11.576;2023-02-01T06:50:26;7.80;41.00
26035;DHT22;13809;48.632;11.576;2023-02-01T06:55:29;7.80;41.00
26035;DHT22;13809;48.632;11.576;2023-02-01T07:00:32;7.80;41.60
26035;DHT22;13809;48.632;11.576;2023-02-01T07:05:37;7.80;40.90
26035;DHT22;13809;48.632;11.576;2023-02-01T07:10:40;7.80;40.90
26035;DHT22;13809;48.632;11.576;2023-02-01T07:15:43;7.80;40.90
26035;DHT22;13809;48.632;11.576;2023-02-01T07:20:51;7.80;40.90
26035;DHT22;13809;48.632;11.576;2023-02-01T07:25:54;7.90;41.10
26035;DHT22;13809;48.632;11.576;2023-02-01T07:31:02;7.90;41.10
26035;DHT22;13809;48.632;11.576;2023-02-01T07:36:11;7.90;41.00
26035;DHT22;13809;48.632;11.576;2023-02-01T07:41:15;8.00;40.90
26035;DHT22;13809;48.632;11.576;2023-02-01T07:46:18;8.00;40.90
26035;DHT22;13809;48.632;11.576;2023-02-01T07:51:22;8.00;40.80
26035;DHT22;13809;48.632;11.576;2023-02-01T07:56:26;8.00;40.70
26035;DHT22;13809;48.632;11.576;2023-02-01T08:01:29;8.10;40.70
26035;DHT22;13809;48.632;11.576;2023-02-01T08:06:34;8.10;40.70
26035;DHT22;13809;48.632;11.576;2023-02-01T08:11:37;8.10;40.60
26035;DHT22;13809;48.632;11.576;2023-02-01T08:16:40;8.10;40.70
26035;DHT22;13809;48.632;11.576;2023-02-01T08:21:45;8.10;40.70
26035;DHT22;13809;48.632;11.576;2023-02-01T08:26:50;8.10;40.70
26035;DHT22;13809;48.632;11.576;2023-02-01T08:31:53;8.20;40.80
26035;DHT22;13809;48.632;11.576;2023-02-01T08:36:58;8.20;40.80
26035;DHT22;13809;48.632;11.576;2023-02-01T08:42:01;8.20;40.70
26035;DHT22;13809;48.632;11.576;2023-02-01T08:47:22;8.20;40.80
26035;DHT22;13809;48.632;11.576;2023-02-01T08:52:27;8.20;40.70
26035;DHT22;13809;48.632;11.576;2023-02-01T08:57:30;8.20;40.70
26035;DHT22;13809;48.632;11.576;2023-02-01T09:02:33;8.30;40.80
26035;DHT22;13809;48.632;11.576;2023-02-01T09:07:38;8.30;41.10
26035;DHT22;13809;48.632;11.576;2023-02-01T09:12:41;8.30;41.10
26035;DHT22;13809;48.632;11.576;2023-02-01T09:17:44;8.30;41.10
26035;DHT22;13809;48.632;11.576;2023-02-01T09:22:48;8.20;41.10
26035;DHT22;13809;48.632;11.576;2023-02-01T09:27:52;8.20;41.10
26035;DHT22;13809;48.632;11.576;2023-02-01T09:32:55;8.20;41.10
26035;DHT22;13809;48.632;11.576;2023-02-01T09:37:59;8.20;41.20
26035;DHT22;13809;48.632;11.576;2023-02-01T09:43:27;8.30;41.20
26035;DHT22;13809;48.632;11.576;2023-02-01T09:48:33;8.30;41.30
26035;DHT22;13809;48.632;11.576;2023-02-01T09:53:41;8.30;41.40
26035;DHT22;13809;48.632;11.576;2023-02-01T09:58:49;8.30;41.50
26035;DHT22;13809;48.632;11.576;2023-02-01T10:03:59;8.30;41.50
26035;DHT22;13809;48.632;11.576;2023-02-01T10:09:14;8.20;41.60
26035;DHT22;13809;48.632;11.576;2023-02-01T10:14:32;8.20;41.70
26035;DHT22;13809;48.632;11.576;2023-02-01T10:19:44;8.20;41.70
26035;DHT22;13809;48.632;11.576;2023-02-01T10:24:54;8.20;41.80
26035;DHT22;13809;48.632;11.576;2023-02-01T10:30:04;8.20;41.80
26035;DHT22;13809;48.632;11.576;2023-02-01T10:35:13;8.20;41.80
26035;DHT22;13809;48.632;11.576;2023-02-01T10:40:21;8.20;42.10
26035;DHT22;13809;48.632;11.576;2023-02-01T10:45:27;8.20;42.00
26035;DHT22;13809;48.632;11.576;2023-02-01T10:50:35;8.10;41.90
26035;DHT22;13809;48.632;11.576;2023-02-01T10:55:47;8.10;42.00
26035;DHT22;13809;48.632;11.576;2023-02-01T11:00:53;8.10;42.40
26035;DHT22;13809;48.632;11.576;2023-02-01T11:05:58;8.10;42.00
26035;DHT22;13809;48.632;11.576;2023-02-01T11:11:03;8.10;41.80
26035;DHT22;13809;48.632;11.576;2023-02-01T11:16:12;8.20;42.00
26035;DHT22;13809;48.632;11.576;2023-02-01T11:21:16;8.20;41.70
26035;DHT22;13809;48.632;11.576;2023-02-01T11:26:24;8.30;41.60
26035;DHT22;13809;48.632;11.576;2023-02-01T11:31:28;8.30;41.50
26035;DHT22;13809;48.632;11.576;2023-02-01T11:36:33;8.40;41.60
26035;DHT22;13809;48.632;11.576;2023-02-01T11:41:44;8.40;41.50
26035;DHT22;13809;48.632;11.576;2023-02-01T11:47:19;8.50;41.50
26035;DHT22;13809;48.632;11.576;2023-02-01T11:52:43;8.50;41.30
26035;DHT22;13809;48.632;11.576;2023-02-01T11:58:01;8.60;41.70
26035;DHT22;13809;48.632;11.576;2023-02-01T12:03:34;8.70;41.70
26035;DHT22;13809;48.632;11.576;2023-02-01T12:09:01;8.60;41.70
26035;DHT22;13809;48.632;11.576;2023-02-01T12:14:19;8.60;41.70
26035;DHT22;13809;48.632;11.576;2023-02-01T12:19:34;8.60;42.30
26035;DHT22;13809;48.632;11.576;2023-02-01T12:25:01;8.50;41.50
26035;DHT22;13809;48.632;11.576;2023-02-01T12:35:59;8.50;41.50
26035;DHT22;13809;48.632;11.576;2023-02-01T12:41:17;8.40;41.80
26035;DHT22;13809;48.632;11.576;2023-02-01T12:46:31;8.50;41.60
26035;DHT22;13809;48.632;11.576;2023-02-01T12:51:39;8.50;41.60
26035;DHT22;13809;48.632;11.576;2023-02-01T12:56:47;8.60;41.30
26035;DHT22;13809;48.632;11.576;2023-02-01T13:01:56;8.60;41.10
26035;DHT22;13809;48.632;11.576;2023-02-01T13:07:08;8.60;41.20
26035;DHT22;13809;48.632;11.576;2023-02-01T13:12:15;8.70;40.90
26035;DHT22;13809;48.632;11.576;2023-02-01T13:17:24;8.70;40.90
26035;DHT22;13809;48.632;11.576;2023-02-01T13:22:32;8.70;40.20
26035;DHT22;13809;48.632;11.576;2023-02-01T13:27:36;8.80;40.20
26035;DHT22;13809;48.632;11.576;2023-02-01T13:33:11;8.80;40.20
26035;DHT22;13809;48.632;11.576;2023-02-01T13:39:08;8.80;39.90
26035;DHT22;13809;48.632;11.576;2023-02-01T13:44:23;8.70;39.80
26035;DHT22;13809;48.632;11.576;2023-02-01T13:49:31;8.70;39.80
26035;DHT22;13809;48.632;11.576;2023-02-01T13:54:38;8.70;40.00
26035;DHT22;13809;48.632;11.576;2023-02-01T14:00:07;8.70;39.80
26035;DHT22;13809;48.632;11.576;2023-02-01T14:10:56;8.70;39.80
26035;DHT22;13809;48.632;11.576;2023-02-01T14:16:14;8.70;39.80
26035;DHT22;13809;48.632;11.576;2023-02-01T14:21:23;8.70;39.80
26035;DHT22;13809;48.632;11.576;2023-02-01T14:26:43;8.80;39.90
26035;DHT22;13809;48.632;11.576;2023-02-01T14:32:03;8.80;39.60
26035;DHT22;13809;48.632;11.576;2023-02-01T14:37:13;8.80;39.50
26035;DHT22;13809;48.632;11.576;2023-02-01T14:42:28;8.80;39.70
26035;DHT22;13809;48.632;11.576;2023-02-01T14:47:33;8.80;39.90
26035;DHT22;13809;48.632;11.576;2023-02-01T14:52:40;8.80;39.90
26035;DHT22;13809;48.632;11.576;2023-02-01T14:57:48;8.80;39.30
26035;DHT22;13809;48.632;11.576;2023-02-01T15:02:54;8.80;39.40
26035;DHT22;13809;48.632;11.576;2023-02-01T15:08:04;8.90;39.70
26035;DHT22;13809;48.632;11.576;2023-02-01T15:13:18;8.80;39.00
26035;DHT22;13809;48.632;11.576;2023-02-01T15:18:22;8.90;39.00
26035;DHT22;13809;48.632;11.576;2023-02-01T15:23:27;8.90;39.70
26035;DHT22;13809;48.632;11.576;2023-02-01T15:28:31;8.80;39.40
26035;DHT22;13809;48.632;11.576;2023-02-01T15:33:34;8.80;39.60
26035;DHT22;13809;48.632;11.576;2023-02-01T15:38:40;8.90;39.50
26035;DHT22;13809;48.632;11.576;2023-02-01T15:43:47;8.90;39.00
26035;DHT22;13809;48.632;11.576;2023-02-01T15:48:54;8.90;39.00
26035;DHT22;13809;48.632;11.576;2023-02-01T15:54:01;8.90;39.20
26035;DHT22;13809;48.632;11.576;2023-02-01T15:59:12;8.80;38.80
26035;DHT22;13809;48.632;11.576;2023-02-01T16:04:17;8.80;38.90
26035;DHT22;13809;48.632;11.576;2023-02-01T16:09:24;8.80;39.60
26035;DHT22;13809;48.632;11.576;2023-02-01T16:14:29;8.80;38.70
26035;DHT22;13809;48.632;11.576;2023-02-01T16:19:33;8.80;38.80
26035;DHT22;13809;48.632;11.576;2023-02-01T16:24:38;8.70;38.90
26035;DHT22;13809;48.632;11.576;2023-02-01T16:29:41;8.70;38.80
26035;DHT22;13809;48.632;11.576;2023-02-01T16:34:44;8.70;39.00
26035;DHT22;13809;48.632;11.576;2023-02-01T16:39:49;8.70;38.80
26035;DHT22;13809;48.632;11.576;2023-02-01T16:44:52;8.70;38.50
26035;DHT22;13809;48.632;11.576;2023-02-01T16:49:56;8.70;38.90
26035;DHT22;13809;48.632;11.576;2023-02-01T16:55:01;8.60;38.70
26035;DHT22;13809;48.632;11.576;2023-02-01T17:00:05;8.70;38.80
26035;DHT22;13809;48.632;11.576;2023-02-01T17:05:25;8.70;38.70
26035;DHT22;13809;48.632;11.576;2023-02-01T17:10:30;8.70;38.60
26035;DHT22;13809;48.632;11.576;2023-02-01T17:15:35;8.60;38.40
26035;DHT22;13809;48.632;11.576;2023-02-01T17:20:38;8.70;38.50
26035;DHT22;13809;48.632;11.576;2023-02-01T17:25:44;8.70;38.60
26035;DHT22;13809;48.632;11.576;2023-02-01T17:30:49;8.70;38.40
26035;DHT22;13809;48.632;11.576;2023-02-01T17:35:54;8.70;38.50
26035;DHT22;13809;48.632;11.576;2023-02-01T17:40:58;8.60;38.30
26035;DHT22;13809;48.632;11.576;2023-02-01T17:46:05;8.70;38.40
26035;DHT22;13809;48.632;11.576;2023-02-01T17:51:15;8.70;38.20
26035;DHT22;13809;48.632;11.576;2023-02-01T17:56:22;8.70;38.00
26035;DHT22;13809;48.632;11.576;2023-02-01T18:01:27;8.70;38.20
26035;DHT22;13809;48.632;11.576;2023-02-01T18:06:33;8.70;38.30
26035;DHT22;13809;48.632;11.576;2023-02-01T18:11:40;8.70;38.10
26035;DHT22;13809;48.632;11.576;2023-02-01T18:16:43;8.70;38.20
26035;DHT22;13809;48.632;11.576;2023-02-01T18:21:46;8.70;38.30
26035;DHT22;13809;48.632;11.576;2023-02-01T18:26:51;8.70;38.40
26035;DHT22;13809;48.632;11.576;2023-02-01T18:31:54;8.70;38.20
26035;DHT22;13809;48.632;11.576;2023-02-01T18:36:58;8.70;38.40
26035;DHT22;13809;48.632;11.576;2023-02-01T18:42:02;8.70;38.30
26035;DHT22;13809;48.632;11.576;2023-02-01T18:47:05;8.70;38.10
26035;DHT22;13809;48.632;11.576;2023-02-01T18:52:09;8.80;38.10
26035;DHT22;13809;48.632;11.576;2023-02-01T18:57:15;8.70;37.90
26035;DHT22;13809;48.632;11.576;2023-02-01T19:02:18;8.70;38.00
26035;DHT22;13809;48.632;11.576;2023-02-01T19:07:22;8.70;38.10
26035;DHT22;13809;48.632;11.576;2023-02-01T19:12:27;8.70;38.10
26035;DHT22;13809;48.632;11.576;2023-02-01T19:17:30;8.80;37.90
26035;DHT22;13809;48.632;11.576;2023-02-01T19:22:34;8.80;38.00
26035;DHT22;13809;48.632;11.576;2023-02-01T19:27:38;8.80;37.90
26035;DHT22;13809;48.632;11.576;2023-02-01T19:32:41;8.80;37.90
26035;DHT22;13809;48.632;11.576;2023-02-01T19:37:45;8.80;37.90
26035;DHT22;13809;48.632;11.576;2023-02-01T19:42:50;8.80;37.50
26035;DHT22;13809;48.632;11.576;2023-02-01T19:47:53;8.90;37.30
26035;DHT22;13809;48.632;11.576;2023-02-01T19:52:56;8.80;37.40
26035;DHT22;13809;48.632;11.576;2023-02-01T19:58:01;8.80;37.60
26035;DHT22;13809;48.632;11.576;2023-02-01T20:03:06;8.80;37.50
26035;DHT22;13809;48.632;11.576;2023-02-01T20:08:09;8.80;37.20
26035;DHT22;13809;48.632;11.576;2023-02-01T20:13:14;8.80;37.70
26035;DHT22;13809;48.632;11.576;2023-02-01T20:18:17;8.90;37.40
26035;DHT22;13809;48.632;11.576;2023-02-01T20:23:20;8.90;37.40
26035;DHT22;13809;48.632;11.576;2023-02-01T20:28:25;8.90;37.40
26035;DHT22;13809;48.632;11.576;2023-02-01T20:33:28;8.90;37.30
26035;DHT22;13809;48.632;11.576;2023-02-01T20:38:32;8.90;37.40
26035;DHT22;13809;48.632;11.576;2023-02-01T20:43:36;8.90;37.40
26035;DHT22;13809;48.632;11.576;2023-02-01T20:48:41;8.80;37.40
26035;DHT22;13809;48.632;11.576;2023-02-01T20:53:45;8.80;37.30
26035;DHT22;13809;48.632;11.576;2023-02-01T20:58:50;8.80;37.40
26035;DHT22;13809;48.632;11.576;2023-02-01T21:03:53;8.80;37.40
26035;DHT22;13809;48.632;11.576;2023-02-01T21:08:57;8.70;37.20
26035;DHT22;13809;48.632;11.576;2023-02-01T21:14:01;8.80;37.60
26035;DHT22;13809;48.632;11.576;2023-02-01T21:19:06;8.70;37.30
26035;DHT22;13809;48.632;11.576;2023-02-01T21:24:10;8.70;37.40
26035;DHT22;13809;48.632;11.576;2023-02-01T21:29:15;8.70;37.40
26035;DHT22;13809;48.632;11.576;2023-02-01T21:34:18;8.70;37.20
26035;DHT22;13809;48.632;11.576;2023-02-01T21:39:21;8.70;37.50
26035;DHT22;13809;48.632;11.576;2023-02-01T21:44:26;8.70;37.60
26035;DHT22;13809;48.632;11.576;2023-02-01T21:49:29;8.70;37.30
26035;DHT22;13809;48.632;11.576;2023-02-01T21:54:33;8.80;37.40
26035;DHT22;13809;48.632;11.576;2023-02-01T21:59:37;8.80;37.30
26035;DHT22;13809;48.632;11.576;2023-02-01T22:04:41;8.80;37.20
26035;DHT22;13809;48.632;11.576;2023-02-01T22:09:44;8.80;37.20
26035;DHT22;13809;48.632;11.576;2023-02-01T22:14:49;8.80;37.30
26035;DHT22;13809;48.632;11.576;2023-02-01T22:19:52;8.80;37.30
26035;DHT22;13809;48.632;11.576;2023-02-01T22:24:55;8.80;37.50
26035;DHT22;13809;48.632;11.576;2023-02-01T22:30:00;8.80;37.60
26035;DHT22;13809;48.632;11.576;2023-02-01T22:35:04;8.70;37.30
26035;DHT22;13809;48.632;11.576;2023-02-01T22:40:09;8.80;37.50
26035;DHT22;13809;48.632;11.576;2023-02-01T22:45:14;8.80;37.60
26035;DHT22;13809;48.632;11.576;2023-02-01T22:50:17;8.70;37.50
26035;DHT22;13809;48.632;11.576;2023-02-01T22:55:20;8.70;37.60
26035;DHT22;13809;48.632;11.576;2023-02-01T23:00:26;8.70;37.80
26035;DHT22;13809;48.632;11.576;2023-02-01T23:05:29;8.70;37.80
26035;DHT22;13809;48.632;11.576;2023-02-01T23:10:32;8.70;37.90
26035;DHT22;13809;48.632;11.576;2023-02-01T23:15:38;8.70;38.00
26035;DHT22;13809;48.632;11.576;2023-02-01T23:20:42;8.70;38.00
26035;DHT22;13809;48.632;11.576;2023-02-01T23:25:48;8.60;38.00
26035;DHT22;13809;48.632;11.576;2023-02-01T23:30:54;8.50;38.30
26035;DHT22;13809;48.632;11.576;2023-02-01T23:35:59;8.50;38.50
26035;DHT22;13809;48.632;11.576;2023-02-01T23:41:04;8.50;38.60
26035;DHT22;13809;48.632;11.576;2023-02-01T23:46:09;8.50;38.70
26035;DHT22;13809;48.632;11.576;2023-02-01T23:51:14;8.40;38.80
26035;DHT22;13809;48.632;11.576;2023-02-01T23:56:22;8.30;38.70
